Time;durP1;ratioP1;P1;durP2;ratioP2;P2;SDS_P1;SDS_P2;PMS_P1;PMS_P2;Temp;Humidity;BMP_temperature;BMP_pressure;BME280_temperature;BME280_humidity;BME280_pressure;Samples;Min_cycle;Max_cycle;Signal;HPM_P1;HPM_P2
2022/08/12 00:45:17;;;;;;;42.38;25.52;;;29.00;99.90;;;;;;4950781;29;20512;-64
2022/08/12 00:47:44;;;;;;;35.10;24.15;;;28.90;99.90;;;;;;4950753;29;20508;-65
2022/08/12 00:50:17;;;;;;;51.00;26.10;;;29.00;99.90;;;;;;4950886;28;20032;-66
2022/08/12 00:52:48;;;;;;;40.47;26.25;;;29.10;99.90;;;;;;4949866;28;20251;-64
2022/08/12 00:55:15;;;;;;;47.40;26.85;;;29.10;99.90;;;;;;4947028;29;20020;-63
2022/08/12 00:57:46;;;;;;;49.08;26.13;;;29.20;99.90;;;;;;4949383;29;20054;-64
2022/08/12 01:00:24;;;;;;;43.97;27.67;;;29.30;99.90;;;;;;4950488;29;20043;-65
2022/08/12 01:02:56;;;;;;;39.13;24.10;;;29.40;99.90;;;;;;4950251;28;20193;-64
2022/08/12 01:13:38;;;;;;;36.33;21.52;;;29.60;99.90;;;;;;4948411;29;20044;-64
2022/08/12 01:16:07;;;;;;;33.55;20.30;;;29.70;99.90;;;;;;4945982;29;20118;-65
2022/08/12 01:18:37;;;;;;;29.80;19.52;;;29.70;99.90;;;;;;4934388;28;20064;-63
2022/08/12 01:21:16;;;;;;;49.38;30.67;;;29.80;99.90;;;;;;4988752;28;20023;-64
2022/08/12 01:23:42;;;;;;;41.67;27.75;;;29.90;99.90;;;;;;5049635;28;20025;-65
2022/08/12 01:26:15;;;;;;;46.72;27.52;;;29.90;99.90;;;;;;5048386;28;20021;-63
2022/08/12 01:28:43;;;;;;;45.58;20.13;;;29.90;99.90;;;;;;5047771;28;20021;-63
2022/08/12 01:31:12;;;;;;;36.45;18.77;;;29.90;99.90;;;;;;5047630;28;20030;-64
2022/08/12 01:33:49;;;;;;;25.67;16.95;;;29.90;99.90;;;;;;5048639;28;20025;-64
2022/08/12 01:36:19;;;;;;;35.83;20.33;;;29.90;99.90;;;;;;5048860;28;20516;-65
2022/08/12 01:38:47;;;;;;;48.60;25.45;;;29.90;99.90;;;;;;5049259;28;20062;-65
2022/08/12 01:41:17;;;;;;;70.45;37.50;;;30.00;99.90;;;;;;5049413;28;20025;-64
2022/08/12 01:43:44;;;;;;;49.58;30.98;;;30.10;99.90;;;;;;5049355;28;20025;-65
2022/08/12 01:46:28;;;;;;;52.70;30.35;;;30.10;99.90;;;;;;5047576;28;20040;-65
2022/08/12 01:49:24;;;;;;;51.17;28.50;;;30.00;99.90;;;;;;5036154;28;20091;-64
2022/08/12 01:52:02;;;;;;;38.28;23.92;;;30.00;99.90;;;;;;5036000;28;20029;-65
2022/08/12 01:54:35;;;;;;;36.80;23.45;;;30.10;99.90;;;;;;5035898;28;20036;-64
2022/08/12 01:57:15;;;;;;;31.90;22.58;;;30.10;99.90;;;;;;5035940;28;20057;-65
2022/08/12 02:00:03;;;;;;;41.00;24.95;;;30.10;99.90;;;;;;5035948;28;20045;-65
2022/08/12 02:02:34;;;;;;;38.85;24.73;;;30.10;99.90;;;;;;5035772;28;20053;-63
2022/08/12 02:11:16;;;;;;;29.20;20.55;;;30.00;99.90;;;;;;4994241;28;20035;-65
2022/08/12 02:14:11;;;;;;;29.73;20.90;;;30.00;99.90;;;;;;4955218;29;20066;-64
2022/08/12 02:17:04;;;;;;;33.53;19.45;;;30.10;99.90;;;;;;4956133;29;20035;-64
2022/08/12 02:20:00;;;;;;;27.45;19.50;;;30.20;99.90;;;;;;4956253;29;20047;-64
2022/08/12 02:22:34;;;;;;;30.60;20.55;;;30.30;99.90;;;;;;4956502;29;20544;-65
2022/08/12 02:25:09;;;;;;;28.00;17.80;;;30.40;99.90;;;;;;4956414;29;20039;-65
2022/08/12 02:27:46;;;;;;;29.05;17.58;;;30.40;99.90;;;;;;4956622;29;20027;-65
2022/08/12 02:30:18;;;;;;;33.10;17.60;;;30.50;99.90;;;;;;4955987;29;20225;-65
2022/08/12 02:32:46;;;;;;;37.83;20.95;;;30.50;99.90;;;;;;4956207;29;20047;-65
2022/08/12 02:35:18;;;;;;;30.88;21.42;;;30.70;99.90;;;;;;4956035;29;20102;-65
2022/08/12 02:37:45;;;;;;;;;;;30.80;99.90;;;;;;4956137;29;20066;-64
2022/08/12 02:40:13;;;;;;;32.95;22.10;;;30.90;99.90;;;;;;4956308;29;19938;-64
2022/08/12 02:43:04;;;;;;;28.90;19.60;;;30.90;99.90;;;;;;4955931;29;20498;-65
2022/08/12 02:45:40;;;;;;;28.50;18.70;;;31.00;99.90;;;;;;4955829;29;20578;-64
2022/08/12 02:48:09;;;;;;;29.90;17.67;;;31.20;99.90;;;;;;4979628;28;20074;-65
2022/08/12 02:50:44;;;;;;;22.77;16.52;;;31.30;99.90;;;;;;5015500;28;20088;-65
2022/08/12 02:53:11;;;;;;;26.92;17.88;;;31.40;99.90;;;;;;5036237;28;20029;-65
2022/08/12 02:55:38;;;;;;;25.00;18.73;;;31.30;99.90;;;;;;5035519;28;20025;-65
2022/08/12 02:58:08;;;;;;;36.88;17.67;;;31.30;99.90;;;;;;5034970;28;20021;-65
2022/08/12 03:00:36;;;;;;;29.25;18.58;;;31.20;99.90;;;;;;5035383;28;20025;-65
2022/08/12 03:03:08;;;;;;;29.45;17.15;;;31.20;99.90;;;;;;5035905;28;20051;-65
2022/08/12 03:05:49;;;;;;;25.60;18.00;;;31.20;99.90;;;;;;5035501;28;20029;-65
2022/08/12 03:08:22;;;;;;;30.55;17.02;;;31.20;99.90;;;;;;5035552;28;20037;-66
2022/08/12 03:10:53;;;;;;;23.48;16.30;;;31.20;99.90;;;;;;5035387;28;20413;-64
2022/08/12 03:13:25;;;;;;;24.70;16.65;;;31.20;99.90;;;;;;5035418;28;20112;-65
2022/08/12 03:15:54;;;;;;;28.50;16.35;;;31.30;99.90;;;;;;5035492;28;20402;-65
2022/08/12 03:18:32;;;;;;;24.02;14.07;;;31.50;99.90;;;;;;5035538;28;20474;-65
2022/08/12 03:21:00;;;;;;;20.00;13.00;;;31.50;99.90;;;;;;5046646;28;20088;-66
2022/08/12 03:23:28;;;;;;;22.10;13.45;;;31.50;99.90;;;;;;5037293;28;20076;-65
2022/08/12 03:25:55;;;;;;;25.83;14.15;;;31.60;99.90;;;;;;5041330;28;20113;-68
2022/08/12 03:31:10;;;;;;;21.38;12.60;;;31.50;99.90;;;;;;5011913;28;20061;-66
2022/08/12 03:33:39;;;;;;;23.08;14.68;;;31.60;99.90;;;;;;5012374;28;20061;-68
2022/08/12 03:36:09;;;;;;;20.75;13.48;;;31.70;99.90;;;;;;5011962;28;20155;-68
2022/08/12 03:38:41;;;;;;;24.48;13.52;;;31.70;99.90;;;;;;5011692;28;20070;-68
2022/08/12 03:41:42;;;;;;;23.60;14.32;;;31.80;99.90;;;;;;5015278;28;20068;-65
2022/08/12 04:01:07;;;;;;;16.50;10.45;;;32.30;99.90;;;;;;4769684;30;20417;-65
2022/08/12 04:06:09;;;;;;;21.92;12.20;;;32.60;99.90;;;;;;4765690;30;20028;-64
2022/08/12 04:08:37;;;;;;;24.17;12.00;;;32.60;99.90;;;;;;4765399;30;20039;-64
2022/08/12 04:13:51;;;;;;;14.57;10.25;;;32.50;99.90;;;;;;4768405;30;20048;-65
2022/08/12 04:16:19;;;;;;;18.75;10.40;;;32.40;99.90;;;;;;4764075;30;20513;-62
2022/08/12 04:18:45;;;;;;;15.98;12.10;;;32.40;99.90;;;;;;4764652;30;20434;-63
2022/08/12 04:21:12;;;;;;;20.73;11.68;;;32.50;99.90;;;;;;4764928;30;20075;-64
2022/08/12 04:23:41;;;;;;;20.13;11.77;;;32.50;99.90;;;;;;4764613;30;20057;-64
2022/08/12 04:26:09;;;;;;;18.17;13.32;;;32.40;99.90;;;;;;4766533;30;20040;-65
2022/08/12 04:28:35;;;;;;;17.77;11.68;;;32.50;99.90;;;;;;4782403;30;20121;-64
2022/08/12 04:31:03;;;;;;;17.35;10.88;;;32.50;99.90;;;;;;4855494;29;20049;-65
2022/08/12 04:33:31;;;;;;;17.13;11.82;;;32.40;99.90;;;;;;4888444;29;20502;-65
2022/08/12 04:35:57;;;;;;;17.70;11.50;;;32.40;99.90;;;;;;4943627;28;20047;-64
2022/08/12 04:38:25;;;;;;;15.20;11.77;;;32.30;99.90;;;;;;5000362;28;20029;-66
2022/08/12 04:40:53;;;;;;;22.88;12.70;;;32.20;99.90;;;;;;5032084;28;20420;-65
2022/08/12 04:43:19;;;;;;;19.77;12.63;;;32.20;99.90;;;;;;5031847;28;20017;-65
2022/08/12 04:45:48;;;;;;;19.33;11.98;;;32.10;99.90;;;;;;5031622;28;20026;-65
2022/08/12 04:48:15;;;;;;;16.67;11.02;;;32.10;99.90;;;;;;5033006;28;20087;-65
2022/08/12 04:50:44;;;;;;;15.82;11.02;;;32.00;99.90;;;;;;5034499;28;20474;-65
2022/08/12 04:53:12;;;;;;;18.95;11.32;;;32.00;99.90;;;;;;5032248;28;20029;-65
2022/08/12 04:55:41;;;;;;;16.90;13.02;;;32.00;99.90;;;;;;5032305;28;20026;-66
2022/08/12 04:58:08;;;;;;;24.23;14.60;;;32.00;99.90;;;;;;5032364;28;20021;-64
2022/08/12 05:00:36;;;;;;;29.17;14.30;;;32.00;99.90;;;;;;5033067;28;20072;-64
2022/08/12 05:03:05;;;;;;;25.85;13.55;;;31.90;99.90;;;;;;5032016;28;20025;-64
2022/08/12 05:05:33;;;;;;;22.17;14.50;;;31.90;99.90;;;;;;5031974;28;20029;-65
2022/08/12 05:08:00;;;;;;;29.42;12.60;;;32.00;99.90;;;;;;5032496;28;20034;-65
2022/08/12 05:10:26;;;;;;;16.85;10.45;;;31.90;99.90;;;;;;5033166;28;20033;-65
2022/08/12 05:12:59;;;;;;;17.88;10.48;;;32.00;99.90;;;;;;5033142;28;20429;-64
2022/08/12 05:15:26;;;;;;;15.73;10.82;;;32.10;99.90;;;;;;5032841;28;20018;-66
2022/08/12 05:17:52;;;;;;;15.65;9.50;;;32.40;99.90;;;;;;5032942;28;20085;-65
2022/08/12 05:20:20;;;;;;;14.88;10.82;;;32.70;99.90;;;;;;5040187;28;20028;-62
2022/08/12 05:22:46;;;;;;;17.95;10.63;;;32.70;99.90;;;;;;5055653;28;20386;-63
2022/08/12 05:25:14;;;;;;;12.85;9.75;;;32.90;99.90;;;;;;5057263;28;20024;-64
2022/08/12 05:27:41;;;;;;;16.83;10.20;;;33.10;99.90;;;;;;5051213;28;20057;-62
2022/08/12 05:30:09;;;;;;;20.45;10.75;;;33.10;99.90;;;;;;5040164;28;20104;-64
2022/08/12 05:32:36;;;;;;;16.60;10.65;;;33.10;99.90;;;;;;5041964;28;20064;-64
2022/08/12 05:35:05;;;;;;;28.17;10.85;;;33.00;99.90;;;;;;5057517;28;20048;-64
2022/08/12 05:37:34;;;;;;;15.73;9.48;;;32.90;99.90;;;;;;5057367;28;20021;-64
2022/08/12 05:40:02;;;;;;;13.77;8.48;;;32.80;99.90;;;;;;5057178;28;20017;-64
2022/08/12 05:42:30;;;;;;;17.38;9.80;;;32.80;99.90;;;;;;5056044;28;20025;-63
2022/08/12 05:44:57;;;;;;;16.55;8.95;;;32.70;99.90;;;;;;5056086;28;20033;-63
2022/08/12 05:47:23;;;;;;;13.13;8.73;;;32.70;99.90;;;;;;5056311;28;20462;-64
2022/08/12 05:49:50;;;;;;;13.23;8.10;;;32.60;99.90;;;;;;5047400;28;20033;-62
2022/08/12 05:52:16;;;;;;;17.95;8.35;;;32.60;99.90;;;;;;5034016;28;20190;-63
2022/08/12 05:54:44;;;;;;;16.50;8.93;;;32.70;99.90;;;;;;5034225;28;20039;-64
2022/08/12 05:57:12;;;;;;;11.77;7.85;;;32.90;99.90;;;;;;5034225;28;20505;-64
2022/08/12 05:59:40;;;;;;;13.10;8.50;;;33.10;99.90;;;;;;5034168;28;20032;-64
2022/08/12 06:02:08;;;;;;;12.48;8.65;;;33.10;99.90;;;;;;5033879;28;20119;-65
2022/08/12 06:04:35;;;;;;;19.80;10.57;;;33.10;99.90;;;;;;5033979;28;20374;-63
2022/08/12 06:07:06;;;;;;;17.50;9.10;;;33.00;99.90;;;;;;5035051;28;20094;-63
2022/08/12 06:09:33;;;;;;;14.05;7.85;;;32.80;98.60;;;;;;5035654;28;20022;-64
2022/08/12 06:11:59;;;;;;;19.52;8.48;;;32.70;98.90;;;;;;5031415;28;20045;-63
2022/08/12 06:14:26;;;;;;;12.60;8.18;;;32.60;99.20;;;;;;5033652;28;20370;-63
2022/08/12 06:16:52;;;;;;;12.98;7.32;;;32.60;98.30;;;;;;5033835;28;20017;-64
2022/08/12 06:19:19;;;;;;;15.43;7.55;;;32.50;95.90;;;;;;5033045;28;20080;-63
2022/08/12 06:21:47;;;;;;;15.25;7.93;;;32.50;96.10;;;;;;5032816;28;20148;-63
2022/08/12 06:24:16;;;;;;;14.50;7.35;;;32.40;96.80;;;;;;5031995;28;20021;-63
2022/08/12 06:26:43;;;;;;;13.40;7.25;;;32.40;96.90;;;;;;5030608;28;20025;-63
2022/08/12 06:29:18;;;;;;;12.02;7.15;;;32.40;96.90;;;;;;5032617;28;20022;-63
2022/08/12 06:31:49;;;;;;;13.35;7.32;;;32.40;96.90;;;;;;5032918;28;20033;-63
2022/08/12 06:34:17;;;;;;;15.90;7.63;;;32.40;96.90;;;;;;5031713;28;20029;-64
2022/08/12 06:36:45;;;;;;;15.80;9.63;;;32.40;97.40;;;;;;5031518;28;20469;-63
2022/08/12 06:39:13;;;;;;;15.48;7.88;;;32.50;97.60;;;;;;5030524;28;20026;-63
2022/08/12 06:44:26;;;;;;;15.10;8.13;;;32.80;96.50;;;;;;5030494;28;20057;-63
2022/08/12 06:46:53;;;;;;;25.17;12.52;;;33.00;97.50;;;;;;5031526;28;20025;-63
2022/08/12 06:49:19;;;;;;;17.02;9.43;;;33.20;97.10;;;;;;5031826;28;20024;-62
2022/08/12 06:51:46;;;;;;;32.83;24.75;;;33.30;96.30;;;;;;5033052;28;20053;-62
2022/08/12 06:54:12;;;;;;;55.70;40.35;;;33.40;96.20;;;;;;5033219;28;20049;-63
2022/08/12 06:56:39;;;;;;;29.00;15.82;;;33.60;96.10;;;;;;5033559;28;20024;-63
2022/08/12 06:59:05;;;;;;;15.38;8.90;;;33.70;95.60;;;;;;5033455;28;20060;-63
2022/08/12 07:01:32;;;;;;;15.98;9.48;;;33.80;95.30;;;;;;5033093;28;20474;-63
2022/08/12 07:03:59;;;;;;;20.50;13.07;;;33.90;95.10;;;;;;5033235;28;20018;-65
2022/08/12 07:06:27;;;;;;;20.40;9.75;;;34.00;94.90;;;;;;5032312;28;20029;-64
2022/08/12 07:08:54;;;;;;;18.20;8.50;;;34.00;92.20;;;;;;5031680;28;20022;-64
2022/08/12 07:11:21;;;;;;;22.25;12.32;;;33.90;93.20;;;;;;5032205;28;20474;-64
2022/08/12 07:13:51;;;;;;;14.82;9.95;;;33.90;92.80;;;;;;5031738;28;20029;-63
2022/08/12 07:16:20;;;;;;;21.05;10.93;;;34.00;93.40;;;;;;5030168;28;20053;-63
2022/08/12 07:18:52;;;;;;;17.73;11.43;;;34.00;92.50;;;;;;5031575;28;20386;-64
2022/08/12 07:21:19;;;;;;;11.05;7.95;;;34.10;92.70;;;;;;5033721;28;20025;-64
2022/08/12 07:23:46;;;;;;;16.65;8.48;;;34.20;93.00;;;;;;5033752;28;20026;-62
2022/08/12 07:26:15;;;;;;;13.80;8.27;;;34.20;92.90;;;;;;5034174;28;20363;-63
2022/08/12 07:28:43;;;;;;;12.80;7.38;;;34.40;91.20;;;;;;5034107;28;20065;-63
2022/08/12 07:31:10;;;;;;;19.60;7.93;;;34.50;91.80;;;;;;5033948;28;20363;-63
2022/08/12 07:33:39;;;;;;;12.50;8.07;;;34.50;91.60;;;;;;5033981;28;20033;-63
2022/08/12 07:36:09;;;;;;;13.88;7.68;;;34.50;92.50;;;;;;5033834;28;20068;-63
2022/08/12 07:38:42;;;;;;;16.48;8.00;;;34.50;92.70;;;;;;5033896;28;20136;-62
2022/08/12 07:41:15;;;;;;;28.85;23.48;;;34.50;92.40;;;;;;5033834;28;20467;-63
2022/08/12 07:43:46;;;;;;;24.35;15.95;;;34.40;92.60;;;;;;5033729;28;20036;-63
2022/08/12 07:46:15;;;;;;;54.08;40.40;;;34.30;90.70;;;;;;5033355;28;20087;-63
2022/08/12 07:48:45;;;;;;;20.13;13.85;;;34.20;91.60;;;;;;5033987;28;20029;-63
2022/08/12 07:51:12;;;;;;;22.65;13.75;;;34.10;92.00;;;;;;5033923;28;20044;-63
2022/08/12 07:53:39;;;;;;;26.58;20.27;;;34.00;91.30;;;;;;5033502;28;20026;-62
2022/08/12 07:56:09;;;;;;;23.02;14.15;;;33.90;91.80;;;;;;5033654;28;20028;-63
2022/08/12 07:58:38;;;;;;;20.20;9.48;;;33.80;90.90;;;;;;5033267;28;20025;-63
2022/08/12 08:01:10;;;;;;;20.45;11.93;;;33.70;91.30;;;;;;5032710;28;20040;-64
2022/08/12 08:03:36;;;;;;;;;;;33.60;92.20;;;;;;5033002;28;20400;-64
2022/08/12 08:06:15;;;;;;;18.45;10.43;;;33.60;92.00;;;;;;5032667;28;19905;-64
2022/08/12 08:08:41;;;;;;;25.88;15.55;;;33.60;92.60;;;;;;5031191;28;20124;-63
2022/08/12 08:13:54;;;;;;;26.35;15.77;;;33.40;93.30;;;;;;5043018;28;20025;-64
2022/08/12 08:16:21;;;;;;;24.48;14.52;;;33.40;93.40;;;;;;5048612;28;20053;-63
2022/08/12 08:18:47;;;;;;;15.68;9.57;;;33.30;93.70;;;;;;5043810;28;20021;-63
2022/08/12 08:21:14;;;;;;;19.35;9.93;;;33.30;93.10;;;;;;5049000;28;20422;-64
2022/08/12 08:26:27;;;;;;;16.38;10.57;;;33.30;92.80;;;;;;5031147;28;20069;-63
2022/08/12 08:28:54;;;;;;;23.65;12.18;;;33.50;92.60;;;;;;5031003;28;20065;-63
2022/08/12 08:31:20;;;;;;;20.30;11.93;;;33.70;92.10;;;;;;5031318;28;20060;-63
2022/08/12 08:33:47;;;;;;;15.98;9.93;;;33.80;92.10;;;;;;5031176;28;20053;-64
2022/08/12 08:36:13;;;;;;;201.25;141.07;;;33.90;91.20;;;;;;5030730;28;20054;-63
2022/08/12 08:38:43;;;;;;;65.45;47.35;;;34.00;91.20;;;;;;5043919;28;20028;-63
2022/08/12 08:43:59;;;;;;;28.17;17.95;;;34.10;90.20;;;;;;5031695;28;20037;-64
2022/08/12 08:46:26;;;;;;;20.80;10.57;;;34.20;90.40;;;;;;5035378;28;20504;-62
2022/08/12 08:48:54;;;;;;;15.15;9.43;;;34.10;90.00;;;;;;5034556;28;20030;-63
2022/08/12 08:51:24;;;;;;;14.35;9.13;;;34.10;90.00;;;;;;5037714;28;20030;-62
2022/08/12 08:53:52;;;;;;;13.23;8.65;;;34.00;90.10;;;;;;5027210;28;20060;-62
2022/08/12 08:56:19;;;;;;;18.00;10.35;;;33.90;90.00;;;;;;5024297;28;20104;-63
2022/08/12 08:58:46;;;;;;;19.80;14.18;;;33.90;88.70;;;;;;5023416;28;20105;-63
2022/08/12 09:01:16;;;;;;;14.48;9.32;;;33.90;90.00;;;;;;5027713;28;20104;-63
2022/08/12 09:03:43;;;;;;;14.20;10.57;;;34.00;90.00;;;;;;5023237;28;20041;-63
2022/08/12 09:06:13;;;;;;;21.90;12.68;;;34.00;90.50;;;;;;5027076;28;20033;-63
2022/08/12 09:08:41;;;;;;;36.70;28.92;;;34.10;90.90;;;;;;5023568;28;20030;-62
2022/08/12 09:13:54;;;;;;;23.90;14.48;;;34.00;90.90;;;;;;5023534;28;20523;-62
2022/08/12 09:16:21;;;;;;;17.35;12.60;;;34.10;90.40;;;;;;5027992;28;20037;-63
2022/08/12 09:18:48;;;;;;;17.83;12.70;;;34.00;89.90;;;;;;5024352;28;20039;-64
2022/08/12 09:21:14;;;;;;;31.50;15.13;;;33.90;89.40;;;;;;5015458;28;20557;-63
2022/08/12 09:23:44;;;;;;;50.97;32.80;;;33.80;90.40;;;;;;5030647;28;20494;-63
2022/08/12 09:26:11;;;;;;;38.72;27.27;;;33.70;90.00;;;;;;5036620;28;20516;-64
2022/08/12 09:28:39;;;;;;;24.15;13.63;;;33.60;89.70;;;;;;5040279;28;20040;-63
2022/08/12 09:31:06;;;;;;;26.40;15.82;;;33.60;90.20;;;;;;5035273;28;20385;-63
2022/08/12 09:33:33;;;;;;;34.60;19.95;;;33.60;90.90;;;;;;5040076;28;20087;-64
2022/08/12 09:36:03;;;;;;;25.38;17.80;;;33.60;90.30;;;;;;5034937;28;20133;-62
2022/08/12 09:38:30;;;;;;;27.38;18.35;;;33.60;90.30;;;;;;5036092;28;20037;-63
2022/08/12 09:40:57;;;;;;;27.10;17.85;;;33.50;90.60;;;;;;5034505;28;20105;-62
2022/08/12 09:46:15;;;;;;;22.52;14.95;;;33.40;91.00;;;;;;5034409;28;20044;-64
2022/08/12 09:48:43;;;;;;;24.83;16.80;;;33.40;91.30;;;;;;5036996;28;20363;-64
2022/08/12 09:51:11;;;;;;;25.48;16.33;;;33.40;90.90;;;;;;5034561;28;20021;-64
2022/08/12 09:53:39;;;;;;;25.20;16.40;;;33.40;91.30;;;;;;5036071;28;20022;-64
2022/08/12 09:56:12;;;;;;;26.27;16.98;;;33.40;91.10;;;;;;5048114;28;20530;-63
2022/08/12 09:58:40;;;;;;;24.33;15.07;;;33.40;91.00;;;;;;5042341;28;20484;-62
2022/08/12 10:01:07;;;;;;;26.02;15.52;;;33.40;90.80;;;;;;5047979;28;20025;-63
2022/08/12 10:03:36;;;;;;;22.17;15.95;;;33.30;90.90;;;;;;5055777;28;20375;-64
2022/08/12 10:06:05;;;;;;;34.33;18.33;;;33.30;91.10;;;;;;5055532;28;20110;-63
2022/08/12 10:08:34;;;;;;;33.92;19.13;;;33.30;91.50;;;;;;5055029;28;20543;-63
2022/08/12 10:13:51;;;;;;;39.08;22.27;;;33.20;91.70;;;;;;5034557;28;20033;-64
2022/08/12 10:16:22;;;;;;;35.63;21.50;;;33.10;92.40;;;;;;5033902;28;20462;-64
2022/08/12 10:18:53;;;;;;;27.05;16.27;;;33.10;92.20;;;;;;5033763;28;20032;-63
2022/08/12 10:21:20;;;;;;;39.03;30.30;;;33.10;92.00;;;;;;5037725;28;20031;-64
2022/08/12 10:23:48;;;;;;;29.88;19.42;;;33.10;92.10;;;;;;5033940;28;20287;-63
2022/08/12 10:31:52;;;;;;;32.03;20.73;;;33.00;92.50;;;;;;5034660;28;20052;-65
2022/08/12 10:34:22;;;;;;;35.45;19.23;;;33.00;92.70;;;;;;5033961;28;20076;-63
2022/08/12 10:36:50;;;;;;;38.22;20.40;;;33.00;92.90;;;;;;5035057;28;20049;-64
2022/08/12 10:39:18;;;;;;;32.20;17.13;;;33.10;92.60;;;;;;5035311;28;20478;-64
2022/08/12 10:44:34;;;;;;;31.05;20.35;;;33.00;92.40;;;;;;5035021;28;20022;-65
2022/08/12 10:47:00;;;;;;;30.05;18.10;;;33.00;92.50;;;;;;5034661;28;20034;-64
2022/08/12 10:49:30;;;;;;;36.10;19.88;;;32.90;93.20;;;;;;5035118;28;20083;-63
2022/08/12 10:51:57;;;;;;;38.35;21.33;;;32.90;93.30;;;;;;5035025;28;20424;-64
2022/08/12 10:54:26;;;;;;;48.10;28.23;;;32.90;93.60;;;;;;5040781;28;20060;-62
2022/08/12 10:56:53;;;;;;;47.13;27.90;;;32.80;93.90;;;;;;5054597;28;20074;-63
2022/08/12 10:59:20;;;;;;;47.95;34.28;;;32.70;93.80;;;;;;5054624;28;20028;-65
2022/08/12 11:01:48;;;;;;;93.82;61.17;;;32.70;94.70;;;;;;5053873;28;20029;-64
2022/08/12 11:04:15;;;;;;;65.70;46.33;;;32.70;94.30;;;;;;5050526;28;20025;-62
2022/08/12 11:06:47;;;;;;;38.50;22.45;;;32.60;94.60;;;;;;5035949;28;20025;-64
2022/08/12 11:09:16;;;;;;;38.67;24.52;;;32.50;94.90;;;;;;5033338;28;20079;-63
2022/08/12 11:11:48;;;;;;;83.35;54.83;;;32.50;95.60;;;;;;5033987;28;20044;-63
2022/08/12 11:14:17;;;;;;;42.00;27.75;;;32.50;95.80;;;;;;5034114;28;20423;-63
2022/08/12 11:16:44;;;;;;;37.40;24.48;;;32.40;95.70;;;;;;5034126;28;20034;-64
2022/08/12 11:19:12;;;;;;;36.08;22.35;;;32.50;95.70;;;;;;5033575;28;20021;-64
2022/08/12 11:21:39;;;;;;;33.47;21.33;;;32.40;95.30;;;;;;5033737;28;20084;-64
2022/08/12 11:24:06;;;;;;;68.25;50.35;;;32.30;95.70;;;;;;5033618;28;20501;-65
2022/08/12 11:26:33;;;;;;;63.33;47.03;;;32.30;96.30;;;;;;5039272;28;20410;-64
2022/08/12 11:28:59;;;;;;;65.85;46.50;;;32.20;95.90;;;;;;5053742;28;20033;-64
2022/08/12 11:31:26;;;;;;;32.58;22.42;;;32.20;96.10;;;;;;5053711;28;20028;-64
2022/08/12 11:33:52;;;;;;;38.78;21.63;;;32.10;96.30;;;;;;5053715;28;20021;-64
2022/08/12 11:36:19;;;;;;;35.67;22.10;;;32.10;96.70;;;;;;5053360;28;20041;-65
2022/08/12 11:38:46;;;;;;;349.88;271.50;;;32.00;96.30;;;;;;5053601;28;20021;-64
2022/08/12 11:41:12;;;;;;;164.23;119.97;;;32.00;97.20;;;;;;5051503;28;20899;-63
2022/08/12 11:43:39;;;;;;;46.08;27.27;;;32.10;97.00;;;;;;5042695;28;20025;-64
2022/08/12 11:46:05;;;;;;;36.88;24.60;;;32.00;96.60;;;;;;5038950;28;20425;-63
2022/08/12 11:48:38;;;;;;;44.88;23.80;;;32.00;97.10;;;;;;5032297;28;20017;-63
2022/08/12 11:51:07;;;;;;;41.25;22.65;;;32.00;97.10;;;;;;5032382;28;20021;-64
2022/08/12 11:53:34;;;;;;;35.35;20.85;;;31.90;97.30;;;;;;5030863;28;20022;-65
2022/08/12 11:56:01;;;;;;;36.08;21.80;;;31.80;97.50;;;;;;5032046;28;20029;-65
2022/08/12 11:58:27;;;;;;;36.30;22.40;;;31.90;97.50;;;;;;5031840;28;20063;-63
2022/08/12 12:00:54;;;;;;;37.13;20.90;;;31.80;97.40;;;;;;5032337;28;20109;-66
2022/08/12 12:03:21;;;;;;;38.60;21.98;;;31.70;97.80;;;;;;5033074;28;20017;-65
2022/08/12 12:05:47;;;;;;;34.47;22.13;;;31.70;98.20;;;;;;5033355;28;20456;-65
2022/08/12 12:08:24;;;;;;;43.22;22.08;;;31.60;98.50;;;;;;5033355;28;20053;-64
2022/08/12 12:10:52;;;;;;;43.95;22.63;;;31.60;98.50;;;;;;5033008;28;20029;-66
2022/08/12 12:13:20;;;;;;;39.92;23.15;;;31.70;98.40;;;;;;5037875;28;20048;-65
2022/08/12 12:15:47;;;;;;;34.50;22.60;;;31.60;98.50;;;;;;5047238;28;20029;-66
2022/08/12 12:18:25;;;;;;;32.45;21.13;;;31.50;98.70;;;;;;5053045;28;20056;-64
2022/08/12 12:20:53;;;;;;;33.55;22.38;;;31.50;99.30;;;;;;5045850;28;20417;-66
2022/08/12 12:23:20;;;;;;;38.83;23.65;;;31.50;99.30;;;;;;5032762;28;20482;-65
2022/08/12 12:25:46;;;;;;;32.42;20.85;;;31.50;99.40;;;;;;5032705;28;20490;-63
2022/08/12 12:28:13;;;;;;;41.53;23.92;;;31.50;99.20;;;;;;5032618;28;20116;-64
2022/08/12 12:30:40;;;;;;;44.67;26.65;;;31.50;99.30;;;;;;5033131;28;20056;-64
2022/08/12 12:33:09;;;;;;;41.35;25.63;;;31.50;99.40;;;;;;5033431;28;20093;-62
2022/08/12 12:35:35;;;;;;;38.17;24.02;;;31.40;99.60;;;;;;5033239;28;20497;-63
2022/08/12 12:38:04;;;;;;;32.85;21.50;;;31.40;99.90;;;;;;5033537;28;20029;-65
2022/08/12 12:40:32;;;;;;;33.85;19.27;;;31.30;99.90;;;;;;5033111;28;20017;-63
2022/08/12 12:42:59;;;;;;;26.55;17.85;;;31.30;99.90;;;;;;5032869;28;20546;-65
2022/08/12 12:45:27;;;;;;;36.75;19.15;;;31.20;99.90;;;;;;5033091;28;20025;-65
2022/08/12 12:47:58;;;;;;;41.67;21.50;;;31.20;99.90;;;;;;5033054;28;20096;-64
2022/08/12 12:50:27;;;;;;;30.02;19.27;;;31.20;99.90;;;;;;5033128;28;20022;-65
2022/08/12 12:52:54;;;;;;;28.98;17.80;;;31.10;99.90;;;;;;5033103;28;20058;-66
2022/08/12 12:55:22;;;;;;;37.15;18.73;;;31.10;99.90;;;;;;5032881;28;20026;-65
2022/08/12 12:57:49;;;;;;;32.08;18.63;;;31.10;99.90;;;;;;5042509;28;20029;-65
2022/08/12 13:00:17;;;;;;;32.40;18.77;;;31.10;99.90;;;;;;5043809;28;20111;-63
2022/08/12 13:02:57;;;;;;;31.45;18.80;;;31.00;99.90;;;;;;5049812;28;20021;-66
2022/08/12 13:05:26;;;;;;;31.35;18.70;;;31.00;99.90;;;;;;5051362;28;20036;-66
2022/08/12 13:07:55;;;;;;;36.80;19.73;;;31.00;99.90;;;;;;5052587;28;20106;-65
2022/08/12 13:10:24;;;;;;;37.95;21.40;;;31.00;99.90;;;;;;5046990;28;20112;-65
2022/08/12 13:12:51;;;;;;;31.17;19.98;;;31.00;99.90;;;;;;5031257;28;20076;-65
2022/08/12 13:15:18;;;;;;;31.63;20.05;;;30.90;99.90;;;;;;5031536;28;20036;-64
2022/08/12 13:17:50;;;;;;;28.52;20.10;;;30.80;99.90;;;;;;5031631;28;20036;-65
2022/08/12 13:20:19;;;;;;;27.38;17.45;;;30.80;99.90;;;;;;5029716;28;20030;-67
2022/08/12 13:22:46;;;;;;;24.15;16.17;;;30.80;99.90;;;;;;5032400;28;20034;-65
2022/08/12 13:25:15;;;;;;;30.55;17.00;;;30.80;99.90;;;;;;5038412;28;20029;-66
2022/08/12 13:27:44;;;;;;;24.05;15.77;;;30.70;99.90;;;;;;5050512;28;20025;-66
2022/08/12 13:30:14;;;;;;;36.38;16.25;;;30.70;99.90;;;;;;5048435;28;20070;-65
2022/08/12 13:32:50;;;;;;;41.65;18.25;;;30.70;99.90;;;;;;5032295;28;20029;-65
2022/08/12 13:35:17;;;;;;;26.60;16.45;;;30.70;99.90;;;;;;5031276;28;20041;-67
2022/08/12 13:37:54;;;;;;;33.85;17.58;;;30.60;99.90;;;;;;5031572;28;20104;-65
2022/08/12 13:40:21;;;;;;;32.28;15.25;;;30.50;99.90;;;;;;5032790;28;20025;-65
2022/08/12 13:42:48;;;;;;;36.17;18.73;;;30.50;99.90;;;;;;5034162;28;20026;-67
2022/08/12 13:45:15;;;;;;;25.92;15.70;;;30.40;99.90;;;;;;5035565;28;20025;-67
2022/08/12 13:47:57;;;;;;;25.65;14.90;;;30.40;99.90;;;;;;5035238;28;20021;-66
2022/08/12 13:50:31;;;;;;;24.58;14.95;;;30.40;99.90;;;;;;5035318;28;20017;-67
2022/08/12 13:53:00;;;;;;;25.48;14.77;;;30.40;99.90;;;;;;5035387;28;20029;-65
2022/08/12 13:55:28;;;;;;;25.67;15.70;;;30.40;99.90;;;;;;5032651;28;20025;-68
2022/08/12 13:57:55;;;;;;;32.67;16.27;;;30.40;99.90;;;;;;5038079;28;20063;-68
2022/08/12 14:00:23;;;;;;;24.63;15.57;;;30.30;99.90;;;;;;5037439;28;20025;-67
2022/08/12 14:02:50;;;;;;;20.50;14.18;;;30.30;99.90;;;;;;5044536;28;20025;-68
2022/08/12 14:05:16;;;;;;;26.77;15.55;;;30.20;99.90;;;;;;5055861;28;20029;-69
2022/08/12 14:07:53;;;;;;;26.15;15.65;;;30.20;99.90;;;;;;5055751;28;20389;-69
2022/08/12 14:13:13;;;;;;;27.00;16.08;;;30.10;99.90;;;;;;5055622;28;20035;-67
2022/08/12 14:15:44;;;;;;;24.73;16.03;;;30.10;99.90;;;;;;5055630;28;20117;-66
2022/08/12 14:18:16;;;;;;;25.38;14.57;;;30.10;99.90;;;;;;5055551;28;20258;-66
2022/08/12 14:20:57;;;;;;;29.25;16.00;;;30.00;99.90;;;;;;5048154;28;20032;-66
2022/08/12 14:23:30;;;;;;;25.92;15.27;;;30.00;99.90;;;;;;5047277;28;20031;-66
2022/08/12 14:25:58;;;;;;;30.95;16.20;;;30.00;99.90;;;;;;5042704;28;20025;-65
2022/08/12 14:28:26;;;;;;;22.75;15.45;;;30.00;99.90;;;;;;5055697;28;20067;-65
2022/08/12 14:30:59;;;;;;;27.55;15.95;;;29.90;99.90;;;;;;5055226;28;20036;-65
2022/08/12 14:33:30;;;;;;;25.90;15.70;;;30.00;99.90;;;;;;5055355;28;20446;-67